createdAt,value
2022-11-09T00:00:45.855Z,5.88
2022-11-09T00:05:56.642Z,5.13
2022-11-09T00:11:05.267Z,5.30
2022-11-09T00:16:11.658Z,5.82
2022-11-09T00:21:16.810Z,5.72
2022-11-09T00:26:21.374Z,6.15
2022-11-09T00:31:26.397Z,5.43
2022-11-09T00:36:30.894Z,5.90
2022-11-09T00:41:34.084Z,6.57
2022-11-09T00:46:38.662Z,5.53
2022-11-09T00:51:41.981Z,5.43
2022-11-09T00:56:45.193Z,5.00
2022-11-09T01:01:49.843Z,5.28
2022-11-09T01:06:53.011Z,5.75
2022-11-09T01:11:56.191Z,5.70
2022-11-09T01:17:00.794Z,5.97
2022-11-09T01:22:03.949Z,5.85
2022-11-09T01:27:07.100Z,5.20
2022-11-09T01:32:11.722Z,6.35
2022-11-09T01:37:14.866Z,5.05
2022-11-09T01:42:25.310Z,5.90
2022-11-09T01:47:30.027Z,5.32
2022-11-09T01:52:37.398Z,5.25
2022-11-09T01:57:45.857Z,5.82
2022-11-09T02:02:56.531Z,5.07
2022-11-09T02:08:01.911Z,5.93
2022-11-09T02:13:05.451Z,5.60
2022-11-09T02:18:10.222Z,5.78
2022-11-09T02:23:15.342Z,5.18
2022-11-09T02:28:19.082Z,5.57
2022-11-09T02:33:22.800Z,5.78
2022-11-09T02:38:27.391Z,5.25
2022-11-09T02:43:30.621Z,4.60
2022-11-09T02:48:33.806Z,4.45
2022-11-09T02:53:38.422Z,4.70
2022-11-09T02:58:41.610Z,4.78
2022-11-09T03:03:45.056Z,5.32
2022-11-09T03:08:49.665Z,5.10
2022-11-09T03:13:52.847Z,5.25
2022-11-09T03:18:56.874Z,4.50
2022-11-09T03:24:01.494Z,5.03
2022-11-09T03:29:04.701Z,5.25
2022-11-09T03:34:07.862Z,5.28
2022-11-09T03:39:12.425Z,4.47
2022-11-09T03:44:15.555Z,4.30
2022-11-09T03:49:18.819Z,4.15
2022-11-09T03:54:23.429Z,4.43
2022-11-09T03:59:26.649Z,5.53
2022-11-09T04:04:29.910Z,4.10
2022-11-09T04:09:34.566Z,4.85
2022-11-09T04:14:37.838Z,4.63
2022-11-09T04:19:41.193Z,5.13
2022-11-09T04:24:45.883Z,4.75
2022-11-09T04:29:49.156Z,3.95
2022-11-09T04:34:52.374Z,4.22
2022-11-09T04:39:56.998Z,4.63
2022-11-09T04:45:00.214Z,4.00
2022-11-09T04:50:03.438Z,4.10
2022-11-09T04:55:09.764Z,4.28
2022-11-09T05:00:13.976Z,3.75
2022-11-09T05:05:17.257Z,3.43
2022-11-09T05:10:21.998Z,4.38
2022-11-09T05:15:25.266Z,4.22
2022-11-09T05:20:29.209Z,3.80
2022-11-09T05:25:33.960Z,3.03
2022-11-09T05:30:37.205Z,3.72
2022-11-09T05:35:40.463Z,3.25
2022-11-09T05:40:45.111Z,3.45
2022-11-09T05:45:48.991Z,2.65
2022-11-09T05:50:52.279Z,2.85
2022-11-09T05:55:57.107Z,2.80
2022-11-09T06:06:08.632Z,2.75
2022-11-09T06:11:21.891Z,2.63
2022-11-09T06:16:26.734Z,2.70
2022-11-09T06:21:29.984Z,2.83
2022-11-09T06:26:34.699Z,2.13
2022-11-09T06:31:37.921Z,2.17
2022-11-09T06:36:41.085Z,2.40
2022-11-09T06:41:47.608Z,2.53
2022-11-09T06:46:50.950Z,2.85
2022-11-09T06:51:54.135Z,2.53
2022-11-09T06:56:58.656Z,2.28
2022-11-09T07:02:02.384Z,2.28
2022-11-09T07:07:05.610Z,2.20
2022-11-09T07:12:10.627Z,2.70
2022-11-09T07:17:13.746Z,2.13
2022-11-09T07:22:17.171Z,2.38
2022-11-09T07:27:27.362Z,2.50
2022-11-09T07:33:07.548Z,2.65
2022-11-09T07:38:01.253Z,3.00
2022-11-09T07:43:07.303Z,2.70
2022-11-09T07:48:12.707Z,2.30
2022-11-09T07:53:17.021Z,3.28
2022-11-09T07:58:21.592Z,3.10
2022-11-09T08:03:25.908Z,2.58
2022-11-09T08:08:29.074Z,3.03
2022-11-09T08:13:34.263Z,3.45
2022-11-09T08:18:37.440Z,9.95
2022-11-09T08:23:40.967Z,4.10
2022-11-09T08:28:45.501Z,9.20
2022-11-09T08:33:48.666Z,6.47
2022-11-09T08:38:51.798Z,4.57
2022-11-09T08:43:56.356Z,8.43
2022-11-09T08:48:59.537Z,3.30
2022-11-09T08:54:02.892Z,2.25
2022-11-09T08:59:07.415Z,2.78
2022-11-09T09:04:10.584Z,2.15
2022-11-09T09:09:13.828Z,2.15
2022-11-09T09:14:18.410Z,2.35
2022-11-09T09:19:21.584Z,2.22
2022-11-09T09:24:24.867Z,2.65
2022-11-09T09:29:29.417Z,2.67
2022-11-09T09:34:32.716Z,2.75
2022-11-09T09:39:35.864Z,2.30
2022-11-09T09:44:45.071Z,1.98
2022-11-09T09:50:05.806Z,2.22
2022-11-09T09:55:20.365Z,1.67
2022-11-09T10:00:28.004Z,1.65
2022-11-09T10:05:44.578Z,1.70
2022-11-09T10:10:57.773Z,2.08
2022-11-09T10:16:09.302Z,2.22
2022-11-09T10:21:35.477Z,1.77
2022-11-09T10:26:44.253Z,1.55
2022-11-09T10:31:51.700Z,1.95
2022-11-09T10:37:02.755Z,1.33
2022-11-09T10:42:05.980Z,1.55
2022-11-09T10:47:13.495Z,1.70
2022-11-09T10:52:33.325Z,1.33
2022-11-09T10:57:36.551Z,1.42
2022-11-09T11:02:50.141Z,1.73
2022-11-09T11:07:53.308Z,1.75
2022-11-09T11:13:25.433Z,1.52
2022-11-09T11:18:32.761Z,1.73
2022-11-09T11:23:37.168Z,1.75
2022-11-09T11:28:43.953Z,2.10
2022-11-09T11:33:49.553Z,1.75
2022-11-09T11:39:02.850Z,1.55
2022-11-09T11:44:22.188Z,2.10
2022-11-09T11:49:42.514Z,1.30
2022-11-09T11:55:02.947Z,1.45
2022-11-09T12:00:13.542Z,1.83
2022-11-09T12:05:55.182Z,1.50
2022-11-09T12:11:10.346Z,1.92
2022-11-09T12:16:24.838Z,2.67
2022-11-09T12:21:37.500Z,2.78
2022-11-09T12:27:11.255Z,2.95
2022-11-09T12:32:29.198Z,2.40
2022-11-09T12:37:38.603Z,2.10
2022-11-09T12:42:47.583Z,2.08
2022-11-09T12:47:54.837Z,2.10
2022-11-09T12:52:58.582Z,1.92
2022-11-09T12:58:03.280Z,2.00
2022-11-09T13:08:19.131Z,1.70
2022-11-09T13:13:26.370Z,2.00
2022-11-09T13:18:51.500Z,1.73
2022-11-09T13:24:04.588Z,1.67
2022-11-09T13:29:23.893Z,1.70
2022-11-09T13:34:44.546Z,1.48
2022-11-09T13:39:47.899Z,1.40
2022-11-09T13:44:52.660Z,1.60
2022-11-09T13:49:56.212Z,1.40
2022-11-09T13:54:59.639Z,1.50
2022-11-09T14:00:06.835Z,1.60
2022-11-09T14:05:24.906Z,2.40
2022-11-09T14:10:45.563Z,1.80
2022-11-09T14:15:56.728Z,1.80
2022-11-09T14:21:08.616Z,2.00
2022-11-09T14:26:18.719Z,1.75
2022-11-09T14:31:26.550Z,1.60
2022-11-09T14:36:31.763Z,1.90
2022-11-09T14:41:36.218Z,2.22
2022-11-09T14:51:44.206Z,3.17
2022-11-09T14:56:48.063Z,5.27
2022-11-09T15:02:06.238Z,3.63
2022-11-09T15:07:19.716Z,3.22
2022-11-09T15:12:23.367Z,3.58
2022-11-09T15:17:31.099Z,4.10
2022-11-09T15:22:50.550Z,4.90
2022-11-09T15:27:59.903Z,5.72
2022-11-09T15:33:17.575Z,6.25
2022-11-09T15:38:36.845Z,5.32
2022-11-09T15:43:40.059Z,5.13
2022-11-09T15:48:46.328Z,4.95
2022-11-09T15:53:49.612Z,5.63
2022-11-09T15:58:53.717Z,5.30
2022-11-09T16:03:58.279Z,6.38
2022-11-09T16:14:05.234Z,7.00
2022-11-09T16:19:14.475Z,9.02
2022-11-09T16:24:17.822Z,6.32
2022-11-09T16:29:21.733Z,7.45
2022-11-09T16:34:26.319Z,8.93
2022-11-09T16:44:35.322Z,13.82
2022-11-09T16:49:39.999Z,19.13
2022-11-09T16:59:46.050Z,10.90
2022-11-09T17:04:50.608Z,10.43
2022-11-09T17:14:56.660Z,8.00
2022-11-09T17:20:01.577Z,8.90
2022-11-09T17:25:05.590Z,12.27
2022-11-09T17:30:10.754Z,13.07
2022-11-09T17:35:15.429Z,9.40
2022-11-09T17:45:23.284Z,11.40
2022-11-09T17:50:27.841Z,10.30
2022-11-09T17:55:31.029Z,9.05
2022-11-09T18:00:34.221Z,9.60
2022-11-09T18:05:40.451Z,7.63
2022-11-09T18:10:46.519Z,9.23
2022-11-09T18:15:49.718Z,8.80
2022-11-09T18:20:54.287Z,7.82
2022-11-09T18:25:58.573Z,9.23
2022-11-09T18:31:03.077Z,7.40
2022-11-09T18:36:11.500Z,8.25
2022-11-09T18:41:18.926Z,8.38
2022-11-09T18:46:23.037Z,15.80
2022-11-09T18:51:27.595Z,12.57
2022-11-09T18:56:30.707Z,9.43
2022-11-09T19:01:33.880Z,9.70
2022-11-09T19:06:38.518Z,9.82
2022-11-09T19:16:45.074Z,8.88
2022-11-09T19:21:51.482Z,9.27
2022-11-09T19:26:55.855Z,9.88
2022-11-09T19:31:58.970Z,10.43
2022-11-09T19:37:03.563Z,8.95
2022-11-09T19:42:07.359Z,9.60
2022-11-09T19:47:11.443Z,9.27
2022-11-09T19:52:15.937Z,9.60
2022-11-09T19:57:19.098Z,9.50
2022-11-09T20:02:22.314Z,9.70
2022-11-09T20:07:29.697Z,9.70
2022-11-09T20:12:58.856Z,10.38
2022-11-09T20:18:02.066Z,10.25
2022-11-09T20:23:06.758Z,11.38
2022-11-09T20:33:12.779Z,10.55
2022-11-09T20:38:17.360Z,10.98
2022-11-09T20:43:20.589Z,11.30
2022-11-09T20:48:52.059Z,10.90
2022-11-09T20:53:50.351Z,10.95
2022-11-09T20:58:53.527Z,12.27
2022-11-09T21:03:56.658Z,10.43
2022-11-09T21:09:01.690Z,10.05
2022-11-09T21:14:05.297Z,11.13
2022-11-09T21:19:08.765Z,10.73
2022-11-09T21:24:30.567Z,10.23
2022-11-09T21:29:51.736Z,10.80
2022-11-09T21:34:54.907Z,11.55
2022-11-09T21:39:59.449Z,10.60
2022-11-09T21:45:02.625Z,10.95
2022-11-09T21:50:12.118Z,10.40
2022-11-09T21:55:17.298Z,10.32
2022-11-09T22:00:21.262Z,9.27
2022-11-09T22:05:24.433Z,10.97
2022-11-09T22:10:29.032Z,10.25
2022-11-09T22:20:58.014Z,10.25
2022-11-09T22:26:03.783Z,10.05
2022-11-09T22:31:08.510Z,10.68
2022-11-09T22:41:17.355Z,12.07
2022-11-09T22:46:20.643Z,11.18
2022-11-09T22:51:24.004Z,10.77
2022-11-09T22:56:28.509Z,11.27
2022-11-09T23:01:31.898Z,9.93
2022-11-09T23:06:35.133Z,9.55
2022-11-09T23:11:39.732Z,9.25
2022-11-09T23:16:42.924Z,9.68
2022-11-09T23:21:46.080Z,8.30
2022-11-09T23:26:50.644Z,8.48
2022-11-09T23:31:53.819Z,8.23
2022-11-09T23:36:56.964Z,8.80
2022-11-09T23:42:01.478Z,8.10
2022-11-09T23:47:04.634Z,8.05
2022-11-09T23:52:07.756Z,8.13
2022-11-09T23:57:12.359Z,9.02
